Latest Weather Observations for Oakey

IDQ60801

Issued at 12:05 pm EST Thursday 21 August 2014 (issued every 30 minutes, with the page automatically refreshed every 10 minutes)

About weather observations | Map of weather stations | Latest weather observations for QLD | Other Formats
Station Details ID: 041359 Name: OAKEY AERO Lat: -27.40 Lon: 151.74 Height: 405.69 m
Data from the previous 72 hours. | See also: Recent months at Oakey
Date/Time
EST
Temp
°C
App
Temp
°C
Dew
Point
Rel
Hum
%
Delta-T
°C
Wind Press
QNH
hPa
Press
MSL
hPa
Rain
since 9 am
mm
Dir
 
Spd
km/h
Gust
km/h
Spd
kts
Gust
kts
21/12:00pm 19.9 14.6 7.0 43 6.6 NE 24 32 13 17 1022.3 1022.3 0.0
21/11:30am 19.6 14.7 6.7 43 6.6 ENE 22 32 12 17 1022.7 - 0.0
21/11:00am 19.2 14.7 7.0 45 6.3 SE 20 30 11 16 1023.1 - 0.0
21/10:30am 19.5 15.2 7.9 47 6.1 NE 20 32 11 17 1023.2 - 0.0
21/10:00am 18.4 15.4 7.5 49 5.6 E 13 24 7 13 1023.5 - 0.0
21/09:30am 16.5 14.6 7.7 56 4.5 NE 7 11 4 6 1023.8 - 0.0
21/09:00am 15.1 13.8 7.6 61 3.8 NNE 4 7 2 4 1023.6 1023.6 0.0
21/08:30am 13.2 11.4 8.1 71 2.6 SSE 7 11 4 6 1023.5 - 0.0
21/08:00am 10.8 9.5 7.7 81 1.5 S 4 7 2 4 1023.5 - 0.0
21/07:30am 9.1 8.5 7.2 88 0.9 NNW 0 0 0 0 1023.1 - 0.0
21/07:00am 6.9 4.9 6.2 95 0.3 WSW 6 7 3 4 1022.8 - 0.0
21/06:30am 5.0 1.6 4.0 93 0.4 W 11 13 6 7 1022.8 - 0.0
21/06:00am 5.2 2.2 4.2 93 0.4 W 9 13 5 7 1022.4 1022.4 0.0
21/05:30am 5.4 3.0 4.2 92 0.5 W 6 9 3 5 1022.2 - 0.0
21/05:00am 6.3 2.7 5.1 92 0.5 W 13 15 7 8 1022.1 - 0.0
21/04:30am 7.2 5.0 5.3 88 0.9 SW 6 9 3 5 1022.1 - 0.0
21/04:00am 8.6 6.5 5.7 82 1.3 S 6 7 3 4 1021.7 - 0.0
21/03:30am 9.6 7.4 6.3 80 1.6 SW 7 9 4 5 1021.7 - 0.0
21/03:00am 10.2 7.3 6.7 79 1.7 E 11 15 6 8 1021.8 1021.8 0.0
21/02:30am 11.8 8.0 7.5 75 2.1 E 17 20 9 11 1021.7 - 0.0
21/02:00am 11.7 8.6 7.2 74 2.2 SE 13 19 7 10 1021.9 - 0.0
21/01:30am 12.0 8.1 7.3 73 2.3 SE 17 22 9 12 1022.0 - 0.0
21/01:00am 12.2 7.7 7.1 71 2.5 ESE 20 24 11 13 1022.1 - 0.0
21/12:30am 12.6 6.6 7.1 69 2.7 ENE 28 35 15 19 1022.2 - 0.0
21/12:00am 13.0 7.0 7.2 68 2.9 NE 28 41 15 22 1022.2 1022.2 0.0
 
Date/Time
EST
Temp
°C
App
Temp
°C
Dew
Point
Rel
Hum
%
Delta-T
°C
Wind Press
QNH
hPa
Press
MSL
hPa
Rain
since 9 am
mm
Dir
 
Spd
km/h
Gust
km/h
Spd
kts
Gust
kts
20/11:30pm 12.9 8.6 8.0 72 2.5 NE 20 33 11 18 1022.2 - 0.0
20/11:00pm 12.7 8.8 8.6 76 2.1 NE 19 20 10 11 1022.3 - 0.0
20/10:30pm 13.5 9.2 9.2 75 2.2 NE 22 28 12 15 1022.2 - 0.0
20/10:00pm 13.4 9.9 8.9 74 2.3 NE 17 22 9 12 1022.2 - 0.0
20/09:30pm 14.0 9.9 8.8 71 2.7 NE 20 24 11 13 1022.2 - 0.0
20/09:00pm 14.8 10.7 8.7 67 3.1 NE 20 24 11 13 1022.0 1022.0 0.0
20/08:30pm 15.5 10.4 7.5 59 4.1 NE 24 33 13 18 1021.8 - 0.0
20/08:00pm 16.0 11.5 7.0 55 4.5 NE 20 26 11 14 1021.5 - 0.0
20/07:30pm 15.7 12.1 6.7 55 4.5 NE 15 24 8 13 1021.2 - 0.0
20/07:00pm 16.1 12.7 6.0 51 5.0 NE 13 17 7 9 1020.6 - 0.0
20/06:30pm 16.9 13.9 5.8 48 5.5 NE 11 13 6 7 1020.3 - 0.0
20/06:00pm 17.0 13.2 5.6 47 5.6 ENE 15 19 8 10 1019.6 1019.6 0.0
20/05:30pm 18.3 14.0 5.2 42 6.5 ENE 17 22 9 12 1019.2 - 0.0
20/05:00pm 19.9 16.2 4.4 36 7.6 NE 13 17 7 9 1018.7 - 0.0
20/04:30pm 20.6 17.0 5.0 36 7.8 ESE 13 17 7 9 1018.4 - 0.0
20/04:00pm 20.1 17.7 4.2 35 7.8 SW 6 11 3 6 1018.1 - 0.0
20/03:30pm 20.3 17.9 5.1 37 7.6 S 7 11 4 6 1018.1 - 0.0
20/03:00pm 20.5 16.6 5.3 37 7.6 S 15 20 8 11 1018.3 1018.2 0.0
20/02:30pm 21.3 19.6 6.0 37 7.8 S 4 13 2 7 1018.1 - 0.0
20/02:00pm 19.1 17.0 5.9 42 6.7 ESE 6 11 3 6 1018.4 - 0.0
20/01:30pm 19.8 17.1 5.5 39 7.2 SSE 9 20 5 11 1018.7 - 0.0
20/01:00pm 19.8 17.2 6.2 41 6.9 WSW 9 19 5 10 1018.9 - 0.0
20/12:30pm 19.4 16.9 6.5 43 6.6 SSE 9 19 5 10 1019.2 - 0.0
20/12:00pm 18.4 16.1 7.5 49 5.6 SW 9 13 5 7 1019.8 1019.8 0.0
20/11:30am 17.5 15.7 8.1 54 4.9 WSW 7 15 4 8 1020.1 - 0.0
20/11:00am 16.4 14.8 8.6 60 4.1 S 7 15 4 8 1020.6 - 0.0
20/10:30am 14.5 12.8 8.5 67 3.1 W 7 11 4 6 1021.1 - 0.0
20/10:00am 12.7 12.6 9.3 80 1.8 CALM 0 6 0 3 1021.3 - 0.0
20/09:36am 10.5 9.0 9.1 91 0.7 E 7 9 4 5 1021.3 - 0.0
20/09:30am 10.6 9.9 10.0 96 0.3 NNE 4 9 2 5 1021.4 - 0.0
20/09:26am 9.8 9.3 9.5 98 0.2 NNE 2 6 1 3 1021.4 - 0.0
20/09:00am 8.6 7.9 8.5 99 0.0 SSE 2 7 1 4 1021.4 1021.4 0.0
20/08:30am 7.8 6.1 7.7 99 0.0 NE 6 9 3 5 1021.4 - 0.0
20/08:00am 7.4 6.8 7.3 99 0.0 CALM 0 0 0 0 1021.3 - 0.0
20/07:30am 6.2 5.3 6.1 99 0.0 CALM 0 0 0 0 1021.1 - 0.0
20/07:00am 5.2 4.1 5.1 99 0.0 CALM 0 0 0 0 1020.9 - 0.0
20/06:30am 4.5 2.1 4.4 99 0.0 NNE 6 7 3 4 1020.4 - 0.0
20/06:09am 4.1 1.6 4.0 99 0.0 ESE 6 9 3 5 1019.9 - 0.0
20/06:00am 3.9 0.8 3.6 98 0.1 ESE 9 11 5 6 1019.8 1019.8 0.0
20/05:30am 3.1 0.2 2.8 98 0.1 NNE 7 9 4 5 1019.7 - 0.0
20/05:00am 2.4 -0.4 2.0 97 0.2 NE 6 7 3 4 1019.3 - 0.0
20/04:33am 1.8 -0.4 1.1 95 0.3 NE 2 6 1 3 1019.1 - 0.0
20/04:31am 1.8 -0.4 1.1 95 0.3 NE 2 6 1 3 1019.0 - 0.0
20/04:30am 1.9 -0.7 1.2 95 0.3 NE 4 6 2 3 1019.0 - 0.0
20/04:00am 2.3 0.2 1.7 96 0.2 NE 2 6 1 3 1018.9 - 0.0
20/03:30am 2.4 -1.0 1.8 96 0.2 NE 9 13 5 7 1018.7 - 0.0
20/03:00am 2.5 -0.6 1.6 94 0.4 ESE 7 11 4 6 1018.5 1018.4 0.0
20/02:30am 2.8 -0.3 1.6 92 0.5 NE 7 11 4 6 1018.4 - 0.0
20/02:00am 4.0 1.4 3.1 94 0.4 NE 6 9 3 5 1018.7 - 0.0
20/01:30am 4.0 1.4 3.0 93 0.4 NNE 6 6 3 3 1018.6 - 0.0
20/01:00am 3.7 1.3 2.2 90 0.6 NNE 4 9 2 5 1018.4 - 0.0
20/12:30am 5.0 3.6 3.3 89 0.7 CALM 0 0 0 0 1018.5 - 0.0
20/12:00am 5.7 2.7 4.3 91 0.6 NNE 9 13 5 7 1018.8 1018.7 0.0
 
Date/Time
EST
Temp
°C
App
Temp
°C
Dew
Point
Rel
Hum
%
Delta-T
°C
Wind Press
QNH
hPa
Press
MSL
hPa
Rain
since 9 am
mm
Dir
 
Spd
km/h
Gust
km/h
Spd
kts
Gust
kts
19/11:30pm 6.9 3.4 5.4 90 0.7 WNW 13 15 7 8 1018.7 - 0.0
19/11:00pm 5.9 2.2 4.4 90 0.7 WNW 13 15 7 8 1018.7 - 0.0
19/10:30pm 6.7 3.0 4.5 86 1.0 W 13 13 7 7 1018.6 - 0.0
19/10:00pm 8.9 7.3 6.3 84 1.2 W 4 7 2 4 1018.5 - 0.0
19/09:30pm 8.4 6.1 5.5 82 1.3 WSW 7 11 4 6 1018.4 - 0.0
19/09:00pm 10.2 7.2 6.2 76 1.9 W 11 15 6 8 1018.0 1018.0 0.0
19/08:30pm 11.7 7.4 7.0 73 2.3 SW 19 24 10 13 1017.8 - 0.0
19/08:00pm 12.1 8.2 7.2 72 2.4 SW 17 20 9 11 1017.7 - 0.0
19/07:30pm 12.5 8.0 7.0 69 2.7 SW 20 26 11 14 1017.5 - 0.0
19/07:00pm 13.1 8.7 6.7 65 3.1 SW 19 22 10 12 1017.2 - 0.0
19/06:30pm 13.7 9.2 6.8 63 3.4 SW 20 24 11 13 1016.8 - 0.0
19/06:00pm 14.0 9.6 6.4 60 3.7 SW 19 24 10 13 1016.5 1016.4 0.0
19/05:30pm 15.2 9.8 6.5 56 4.3 SW 24 35 13 19 1016.0 - 0.0
19/05:00pm 15.9 9.4 6.3 53 4.8 WSW 30 41 16 22 1015.7 - 0.0
19/04:30pm 16.8 9.7 6.3 50 5.2 WSW 33 43 18 23 1015.2 - 0.0
19/04:00pm 16.9 8.9 5.5 47 5.6 WSW 37 46 20 25 1015.0 - 0.0
19/03:30pm 16.8 8.4 5.7 48 5.5 WSW 39 48 21 26 1014.7 - 0.0
19/03:00pm 17.8 9.4 5.7 45 6.0 SW 39 46 21 25 1014.5 1014.4 0.0
19/02:30pm 18.6 11.1 6.1 44 6.3 WSW 35 54 19 29 1014.4 - 0.0
19/02:00pm 18.4 10.1 6.3 45 6.1 WSW 39 50 21 27 1014.6 - 0.0
19/01:30pm 16.9 9.0 6.1 49 5.4 WSW 37 50 20 27 1014.5 - 0.0
19/01:00pm 17.1 8.8 6.0 48 5.5 WSW 39 50 21 27 1014.6 - 0.0
19/12:30pm 16.8 9.7 6.6 51 5.1 WSW 33 48 18 26 1015.0 - 0.0
19/12:00pm 16.3 9.5 7.8 57 4.4 WSW 33 44 18 24 1015.5 1015.5 0.0
19/11:30am 16.3 9.6 8.3 59 4.1 WSW 33 43 18 23 1016.1 - 0.0
19/11:00am 15.2 8.4 7.7 61 3.8 WSW 33 44 18 24 1016.5 - 0.0
19/10:30am 13.8 7.2 7.6 66 3.1 WSW 32 41 17 22 1016.7 - 0.0
19/10:00am 13.9 7.2 8.3 69 2.9 WSW 33 44 18 24 1016.7 - 0.0
19/09:30am 12.3 5.5 7.6 73 2.3 WSW 33 43 18 23 1016.9 - 0.0
19/09:00am 11.5 4.7 7.6 77 1.9 W 33 44 18 24 1016.6 1016.5 0.0
19/08:49am 11.3 5.0 7.4 77 1.9 W 30 37 16 20 1016.6 - 0.0
19/08:30am 10.6 4.9 6.9 78 1.8 W 26 33 14 18 1016.5 - 0.0
19/08:00am 10.1 4.3 6.4 78 1.8 W 26 35 14 19 1016.3 - 0.0
19/07:30am 7.7 4.2 5.3 85 1.1 W 13 17 7 9 1016.2 - 0.0
19/07:00am 6.0 2.3 4.5 90 0.7 WSW 13 13 7 7 1016.2 - 0.0
19/06:30am 5.6 1.0 3.9 89 0.7 W 17 19 9 10 1015.7 - 0.0
19/06:00am 6.2 2.1 4.2 87 0.9 WNW 15 19 8 10 1015.3 1015.3 0.0
19/05:30am 6.4 2.3 4.1 85 1.0 W 15 17 8 9 1015.1 - 0.0
19/05:00am 6.6 2.4 3.9 83 1.2 W 15 19 8 10 1014.9 - 0.0
19/04:30am 7.1 3.0 4.4 83 1.2 W 15 17 8 9 1014.7 - 0.0
19/04:00am 7.6 2.8 4.4 80 1.4 W 19 20 10 11 1014.6 - 0.0
19/03:30am 6.9 2.4 4.0 82 1.3 W 17 19 9 10 1014.5 - 0.0
19/03:00am 7.3 2.4 4.1 80 1.4 W 19 22 10 12 1014.4 1014.3 0.0
19/02:30am 7.7 3.2 4.3 79 1.5 W 17 20 9 11 1014.6 - 0.0
19/02:00am 8.5 3.4 4.3 75 1.9 W 20 22 11 12 1014.7 - 0.0
19/01:30am 9.5 4.1 4.5 71 2.3 W 22 28 12 15 1014.8 - 0.0
19/01:00am 10.4 4.7 4.8 68 2.6 W 24 30 13 16 1015.0 - 0.0
19/12:30am 11.5 5.9 5.2 65 3.0 W 24 30 13 16 1015.2 - 0.0
19/12:00am 11.6 5.9 4.8 63 3.2 W 24 30 13 16 1015.4 1015.4 0.0
 
Date/Time
EST
Temp
°C
App
Temp
°C
Dew
Point
Rel
Hum
%
Delta-T
°C
Wind Press
QNH
hPa
Press
MSL
hPa
Rain
since 9 am
mm
Dir
 
Spd
km/h
Gust
km/h
Spd
kts
Gust
kts
18/11:30pm 11.7 6.0 4.7 62 3.3 WNW 24 30 13 16 1015.7 - 0.0
18/11:00pm 11.8 6.1 4.8 62 3.3 WNW 24 30 13 16 1015.7 - 0.0
18/10:30pm 12.2 6.5 4.9 61 3.4 W 24 32 13 17 1015.5 - 0.0
18/10:00pm 12.4 6.4 5.1 61 3.4 WNW 26 32 14 17 1015.4 - 0.0
18/09:30pm 13.0 6.5 4.9 58 3.8 W 28 39 15 21 1015.5 - 0.0
18/09:00pm 12.9 7.4 5.8 62 3.4 W 24 32 13 17 1015.3 1015.3 0.0
18/08:30pm 12.9 7.4 6.0 63 3.3 W 24 28 13 15 1015.2 - 0.0
18/08:00pm 13.0 8.0 6.4 64 3.2 W 22 30 12 16 1014.9 - 0.0
18/07:30pm 13.1 7.7 6.2 63 3.4 W 24 30 13 16 1014.5 - 0.0
18/07:00pm 13.1 7.7 6.5 64 3.2 W 24 30 13 16 1014.1 - 0.0
18/06:30pm 13.2 7.0 6.3 63 3.4 W 28 35 15 19 1013.6 - 0.0
18/06:00pm 13.2 7.4 6.3 63 3.4 W 26 35 14 19 1013.2 1013.1 0.0
18/05:30pm 13.5 7.4 6.4 62 3.5 W 28 37 15 20 1012.8 - 0.0
18/05:00pm 13.8 7.3 6.4 61 3.6 W 30 39 16 21 1012.5 - 0.0
18/04:30pm 14.1 6.6 6.5 60 3.7 W 35 43 19 23 1012.3 - 0.0
18/04:00pm 14.1 6.2 6.2 59 3.9 W 37 44 20 24 1012.1 - 0.0
18/03:30pm 14.3 6.4 6.2 58 4.0 W 37 46 20 25 1011.9 - 0.0
18/03:00pm 14.3 5.6 5.9 57 4.1 W 41 48 22 26 1011.9 1011.8 0.0
18/02:30pm 14.6 6.3 6.2 57 4.1 W 39 48 21 26 1011.6 - 0.0
18/02:00pm 14.6 5.9 6.2 57 4.1 W 41 57 22 31 1011.5 - 0.0
18/01:30pm 14.8 6.6 6.4 57 4.2 W 39 50 21 27 1011.5 - 0.0
18/01:00pm 15.5 6.5 6.2 54 4.6 W 43 54 23 29 1011.7 - 0.0
18/12:30pm 14.2 4.5 5.8 57 4.1 W 46 57 25 31 1011.9 - 0.0

Other Formats:

Comma delimited format used in spreadsheet applications
http://www.bom.gov.au/fwo/IDQ60801/IDQ60801.94552.axf

JavaScript Object Notation format (JSON) in row-major order
http://www.bom.gov.au/fwo/IDQ60801/IDQ60801.94552.json